sensor_id;sensor_type;location;lat;lon;timestamp;P1;P2;P0
73623;PMS5003;61921;53.226;-1.296;2023-04-01T00:02:06;20;17;
73623;PMS5003;61921;53.226;-1.296;2023-04-01T00:04:32;19;18;
73623;PMS5003;61921;53.226;-1.296;2023-04-01T00:06:57;20;20;
73623;PMS5003;61921;53.226;-1.296;2023-04-01T00:09:23;22;21;
73623;PMS5003;61921;53.226;-1.296;2023-04-01T00:11:48;16;16;
73623;PMS5003;61921;53.226;-1.296;2023-04-01T00:14:14;20;16;
73623;PMS5003;61921;53.226;-1.296;2023-04-01T00:16:39;16;16;
73623;PMS5003;61921;53.226;-1.296;2023-04-01T00:19:04;16;16;
73623;PMS5003;61921;53.226;-1.296;2023-04-01T00:21:30;15;12;
73623;PMS5003;61921;53.226;-1.296;2023-04-01T00:23:55;12;12;
73623;PMS5003;61921;53.226;-1.296;2023-04-01T00:26:21;17;15;
73623;PMS5003;61921;53.226;-1.296;2023-04-01T00:28:46;16;12;
73623;PMS5003;61921;53.226;-1.296;2023-04-01T00:31:11;22;20;
73623;PMS5003;61921;53.226;-1.296;2023-04-01T00:33:37;18;17;
73623;PMS5003;61921;53.226;-1.296;2023-04-01T00:36:07;19;16;
73623;PMS5003;61921;53.226;-1.296;2023-04-01T00:38:27;12;12;
73623;PMS5003;61921;53.226;-1.296;2023-04-01T00:40:56;22;20;
73623;PMS5003;61921;53.226;-1.296;2023-04-01T00:43:18;16;16;
73623;PMS5003;61921;53.226;-1.296;2023-04-01T00:45:43;16;16;
73623;PMS5003;61921;53.226;-1.296;2023-04-01T00:48:10;18;18;
73623;PMS5003;61921;53.226;-1.296;2023-04-01T00:50:34;18;18;
73623;PMS5003;61921;53.226;-1.296;2023-04-01T00:53:00;20;19;
73623;PMS5003;61921;53.226;-1.296;2023-04-01T00:55:25;21;20;
73623;PMS5003;61921;53.226;-1.296;2023-04-01T00:57:50;24;22;
73623;PMS5003;61921;53.226;-1.296;2023-04-01T01:00:15;18;16;
73623;PMS5003;61921;53.226;-1.296;2023-04-01T01:02:41;17;17;
73623;PMS5003;61921;53.226;-1.296;2023-04-01T01:05:06;21;18;
73623;PMS5003;61921;53.226;-1.296;2023-04-01T01:07:32;16;16;
73623;PMS5003;61921;53.226;-1.296;2023-04-01T01:09:58;14;12;
73623;PMS5003;61921;53.226;-1.296;2023-04-01T01:12:23;15;14;
73623;PMS5003;61921;53.226;-1.296;2023-04-01T01:14:53;15;12;
73623;PMS5003;61921;53.226;-1.296;2023-04-01T01:17:15;16;15;
73623;PMS5003;61921;53.226;-1.296;2023-04-01T01:19:48;16;15;
73623;PMS5003;61921;53.226;-1.296;2023-04-01T01:22:07;18;17;
73623;PMS5003;61921;53.226;-1.296;2023-04-01T01:24:38;15;14;
73623;PMS5003;61921;53.226;-1.296;2023-04-01T01:26:56;19;17;
73623;PMS5003;61921;53.226;-1.296;2023-04-01T01:31:45;15;12;
73623;PMS5003;61921;53.226;-1.296;2023-04-01T01:34:12;17;15;
73623;PMS5003;61921;53.226;-1.296;2023-04-01T01:36:36;13;13;
73623;PMS5003;61921;53.226;-1.296;2023-04-01T01:39:01;14;14;
73623;PMS5003;61921;53.226;-1.296;2023-04-01T01:41:27;12;11;
73623;PMS5003;61921;53.226;-1.296;2023-04-01T01:43:52;14;11;
73623;PMS5003;61921;53.226;-1.296;2023-04-01T01:46:18;12;10;
73623;PMS5003;61921;53.226;-1.296;2023-04-01T01:48:43;19;13;
73623;PMS5003;61921;53.226;-1.296;2023-04-01T01:51:08;15;11;
73623;PMS5003;61921;53.226;-1.296;2023-04-01T01:53:34;13;11;
73623;PMS5003;61921;53.226;-1.296;2023-04-01T01:55:59;16;15;
73623;PMS5003;61921;53.226;-1.296;2023-04-01T01:58:26;11;9;
73623;PMS5003;61921;53.226;-1.296;2023-04-01T02:00:51;17;15;
73623;PMS5003;61921;53.226;-1.296;2023-04-01T02:03:15;18;15;
73623;PMS5003;61921;53.226;-1.296;2023-04-01T02:05:41;19;16;
73623;PMS5003;61921;53.226;-1.296;2023-04-01T02:08:07;10;10;
73623;PMS5003;61921;53.226;-1.296;2023-04-01T02:10:31;14;13;
73623;PMS5003;61921;53.226;-1.296;2023-04-01T02:12:58;16;13;
73623;PMS5003;61921;53.226;-1.296;2023-04-01T02:15:22;20;18;
73623;PMS5003;61921;53.226;-1.296;2023-04-01T02:17:48;16;12;
73623;PMS5003;61921;53.226;-1.296;2023-04-01T02:20:15;14;11;
73623;PMS5003;61921;53.226;-1.296;2023-04-01T02:22:39;14;12;
73623;PMS5003;61921;53.226;-1.296;2023-04-01T02:25:06;16;16;
73623;PMS5003;61921;53.226;-1.296;2023-04-01T02:27:30;15;14;
73623;PMS5003;61921;53.226;-1.296;2023-04-01T02:29:56;13;13;
73623;PMS5003;61921;53.226;-1.296;2023-04-01T02:32:21;18;12;
73623;PMS5003;61921;53.226;-1.296;2023-04-01T02:34:47;18;15;
73623;PMS5003;61921;53.226;-1.296;2023-04-01T02:37:12;15;14;
73623;PMS5003;61921;53.226;-1.296;2023-04-01T02:39:38;20;16;
73623;PMS5003;61921;53.226;-1.296;2023-04-01T02:42:04;17;16;
73623;PMS5003;61921;53.226;-1.296;2023-04-01T02:44:29;12;12;
73623;PMS5003;61921;53.226;-1.296;2023-04-01T02:46:54;18;18;
73623;PMS5003;61921;53.226;-1.296;2023-04-01T02:49:20;16;12;
73623;PMS5003;61921;53.226;-1.296;2023-04-01T02:51:45;15;12;
73623;PMS5003;61921;53.226;-1.296;2023-04-01T02:54:11;14;11;
73623;PMS5003;61921;53.226;-1.296;2023-04-01T02:56:36;16;13;
73623;PMS5003;61921;53.226;-1.296;2023-04-01T02:59:02;21;17;
73623;PMS5003;61921;53.226;-1.296;2023-04-01T03:01:27;13;11;
73623;PMS5003;61921;53.226;-1.296;2023-04-01T03:03:52;20;15;
73623;PMS5003;61921;53.226;-1.296;2023-04-01T03:06:18;14;10;
73623;PMS5003;61921;53.226;-1.296;2023-04-01T03:08:43;10;10;
73623;PMS5003;61921;53.226;-1.296;2023-04-01T03:11:09;14;14;
73623;PMS5003;61921;53.226;-1.296;2023-04-01T03:13:35;10;9;
73623;PMS5003;61921;53.226;-1.296;2023-04-01T03:16:00;10;7;
73623;PMS5003;61921;53.226;-1.296;2023-04-01T03:18:26;10;9;
73623;PMS5003;61921;53.226;-1.296;2023-04-01T03:20:51;9;8;
73623;PMS5003;61921;53.226;-1.296;2023-04-01T03:23:17;10;8;
73623;PMS5003;61921;53.226;-1.296;2023-04-01T03:25:42;16;14;
73623;PMS5003;61921;53.226;-1.296;2023-04-01T03:28:08;9;9;
73623;PMS5003;61921;53.226;-1.296;2023-04-01T03:30:33;13;10;
73623;PMS5003;61921;53.226;-1.296;2023-04-01T03:32:59;13;10;
73623;PMS5003;61921;53.226;-1.296;2023-04-01T03:35:24;10;7;
73623;PMS5003;61921;53.226;-1.296;2023-04-01T03:37:50;9;9;
73623;PMS5003;61921;53.226;-1.296;2023-04-01T03:40:15;9;9;
73623;PMS5003;61921;53.226;-1.296;2023-04-01T03:42:40;14;7;
73623;PMS5003;61921;53.226;-1.296;2023-04-01T03:45:06;11;7;
73623;PMS5003;61921;53.226;-1.296;2023-04-01T03:47:31;7;7;
73623;PMS5003;61921;53.226;-1.296;2023-04-01T03:49:57;6;6;
73623;PMS5003;61921;53.226;-1.296;2023-04-01T03:52:23;9;7;
73623;PMS5003;61921;53.226;-1.296;2023-04-01T03:54:48;8;8;
73623;PMS5003;61921;53.226;-1.296;2023-04-01T03:57:14;9;9;
73623;PMS5003;61921;53.226;-1.296;2023-04-01T03:59:39;13;10;
73623;PMS5003;61921;53.226;-1.296;2023-04-01T04:02:05;8;8;
73623;PMS5003;61921;53.226;-1.296;2023-04-01T04:04:30;12;10;
73623;PMS5003;61921;53.226;-1.296;2023-04-01T04:06:55;14;13;
73623;PMS5003;61921;53.226;-1.296;2023-04-01T04:09:21;8;8;
73623;PMS5003;61921;53.226;-1.296;2023-04-01T04:11:47;13;9;
73623;PMS5003;61921;53.226;-1.296;2023-04-01T04:14:12;9;8;
73623;PMS5003;61921;53.226;-1.296;2023-04-01T04:16:38;9;8;
73623;PMS5003;61921;53.226;-1.296;2023-04-01T04:19:03;8;7;
73623;PMS5003;61921;53.226;-1.296;2023-04-01T04:21:29;7;7;
73623;PMS5003;61921;53.226;-1.296;2023-04-01T04:23:54;7;7;
73623;PMS5003;61921;53.226;-1.296;2023-04-01T04:26:20;8;5;
73623;PMS5003;61921;53.226;-1.296;2023-04-01T04:28:45;8;6;
73623;PMS5003;61921;53.226;-1.296;2023-04-01T04:31:11;9;8;
73623;PMS5003;61921;53.226;-1.296;2023-04-01T04:33:36;5;5;
73623;PMS5003;61921;53.226;-1.296;2023-04-01T04:36:03;6;6;
73623;PMS5003;61921;53.226;-1.296;2023-04-01T04:38:28;7;7;
73623;PMS5003;61921;53.226;-1.296;2023-04-01T04:40:53;10;9;
73623;PMS5003;61921;53.226;-1.296;2023-04-01T04:43:18;6;6;
73623;PMS5003;61921;53.226;-1.296;2023-04-01T04:45:44;5;5;
73623;PMS5003;61921;53.226;-1.296;2023-04-01T04:48:10;6;6;
73623;PMS5003;61921;53.226;-1.296;2023-04-01T04:50:35;6;5;
73623;PMS5003;61921;53.226;-1.296;2023-04-01T04:53:01;7;7;
73623;PMS5003;61921;53.226;-1.296;2023-04-01T04:55:26;8;6;
73623;PMS5003;61921;53.226;-1.296;2023-04-01T04:57:51;6;5;
73623;PMS5003;61921;53.226;-1.296;2023-04-01T05:00:17;5;5;
73623;PMS5003;61921;53.226;-1.296;2023-04-01T05:02:43;7;6;
73623;PMS5003;61921;53.226;-1.296;2023-04-01T05:05:08;5;3;
73623;PMS5003;61921;53.226;-1.296;2023-04-01T05:07:34;7;7;
73623;PMS5003;61921;53.226;-1.296;2023-04-01T05:09:59;5;3;
73623;PMS5003;61921;53.226;-1.296;2023-04-01T05:12:25;6;4;
73623;PMS5003;61921;53.226;-1.296;2023-04-01T05:14:50;4;4;
73623;PMS5003;61921;53.226;-1.296;2023-04-01T05:17:16;8;6;
73623;PMS5003;61921;53.226;-1.296;2023-04-01T05:19:41;5;5;
73623;PMS5003;61921;53.226;-1.296;2023-04-01T05:22:07;5;5;
73623;PMS5003;61921;53.226;-1.296;2023-04-01T05:24:33;5;5;
73623;PMS5003;61921;53.226;-1.296;2023-04-01T05:26:58;7;5;
73623;PMS5003;61921;53.226;-1.296;2023-04-01T05:29:23;6;4;
73623;PMS5003;61921;53.226;-1.296;2023-04-01T05:31:49;7;6;
73623;PMS5003;61921;53.226;-1.296;2023-04-01T05:34:14;4;4;
73623;PMS5003;61921;53.226;-1.296;2023-04-01T05:36:40;5;5;
73623;PMS5003;61921;53.226;-1.296;2023-04-01T05:39:05;5;5;
73623;PMS5003;61921;53.226;-1.296;2023-04-01T05:41:31;4;4;
73623;PMS5003;61921;53.226;-1.296;2023-04-01T05:43:56;8;5;
73623;PMS5003;61921;53.226;-1.296;2023-04-01T05:46:22;6;6;
73623;PMS5003;61921;53.226;-1.296;2023-04-01T05:48:48;6;5;
73623;PMS5003;61921;53.226;-1.296;2023-04-01T05:51:13;8;5;
73623;PMS5003;61921;53.226;-1.296;2023-04-01T05:53:39;3;3;
73623;PMS5003;61921;53.226;-1.296;2023-04-01T05:56:05;6;5;
73623;PMS5003;61921;53.226;-1.296;2023-04-01T05:58:29;4;4;
73623;PMS5003;61921;53.226;-1.296;2023-04-01T06:00:59;4;4;
73623;PMS5003;61921;53.226;-1.296;2023-04-01T06:03:21;7;6;
73623;PMS5003;61921;53.226;-1.296;2023-04-01T06:05:46;5;4;
73623;PMS5003;61921;53.226;-1.296;2023-04-01T06:08:13;7;6;
73623;PMS5003;61921;53.226;-1.296;2023-04-01T06:10:40;5;5;
73623;PMS5003;61921;53.226;-1.296;2023-04-01T06:13:03;6;5;
73623;PMS5003;61921;53.226;-1.296;2023-04-01T06:15:31;7;7;
73623;PMS5003;61921;53.226;-1.296;2023-04-01T06:18:02;13;7;
73623;PMS5003;61921;53.226;-1.296;2023-04-01T06:20:20;8;6;
73623;PMS5003;61921;53.226;-1.296;2023-04-01T06:22:48;7;7;
73623;PMS5003;61921;53.226;-1.296;2023-04-01T06:25:15;7;6;
73623;PMS5003;61921;53.226;-1.296;2023-04-01T06:27:40;9;8;
73623;PMS5003;61921;53.226;-1.296;2023-04-01T06:30:03;13;12;
73623;PMS5003;61921;53.226;-1.296;2023-04-01T06:32:31;12;9;
73623;PMS5003;61921;53.226;-1.296;2023-04-01T06:34:58;9;7;
73623;PMS5003;61921;53.226;-1.296;2023-04-01T06:37:24;8;6;
73623;PMS5003;61921;53.226;-1.296;2023-04-01T06:42:15;8;7;
73623;PMS5003;61921;53.226;-1.296;2023-04-01T06:44:36;9;7;
73623;PMS5003;61921;53.226;-1.296;2023-04-01T06:47:01;6;5;
73623;PMS5003;61921;53.226;-1.296;2023-04-01T06:49:33;7;4;
73623;PMS5003;61921;53.226;-1.296;2023-04-01T06:51:52;5;4;
73623;PMS5003;61921;53.226;-1.296;2023-04-01T06:54:17;10;8;
73623;PMS5003;61921;53.226;-1.296;2023-04-01T06:56:42;6;6;
73623;PMS5003;61921;53.226;-1.296;2023-04-01T06:59:09;6;6;
73623;PMS5003;61921;53.226;-1.296;2023-04-01T07:01:34;5;4;
73623;PMS5003;61921;53.226;-1.296;2023-04-01T07:04:00;6;6;
73623;PMS5003;61921;53.226;-1.296;2023-04-01T07:06:26;9;7;
73623;PMS5003;61921;53.226;-1.296;2023-04-01T07:08:50;7;6;
73623;PMS5003;61921;53.226;-1.296;2023-04-01T07:11:17;6;6;
73623;PMS5003;61921;53.226;-1.296;2023-04-01T07:13:42;6;5;
73623;PMS5003;61921;53.226;-1.296;2023-04-01T07:16:08;5;5;
73623;PMS5003;61921;53.226;-1.296;2023-04-01T07:18:34;6;6;
73623;PMS5003;61921;53.226;-1.296;2023-04-01T07:20:57;7;6;
73623;PMS5003;61921;53.226;-1.296;2023-04-01T07:23:24;5;5;
73623;PMS5003;61921;53.226;-1.296;2023-04-01T07:25:51;6;5;
73623;PMS5003;61921;53.226;-1.296;2023-04-01T07:28:15;4;4;
73623;PMS5003;61921;53.226;-1.296;2023-04-01T07:30:43;7;6;
73623;PMS5003;61921;53.226;-1.296;2023-04-01T07:33:06;7;7;
73623;PMS5003;61921;53.226;-1.296;2023-04-01T07:35:32;5;5;
73623;PMS5003;61921;53.226;-1.296;2023-04-01T07:38:00;4;4;
73623;PMS5003;61921;53.226;-1.296;2023-04-01T07:40:24;10;9;
73623;PMS5003;61921;53.226;-1.296;2023-04-01T07:42:53;7;7;
73623;PMS5003;61921;53.226;-1.296;2023-04-01T07:45:15;7;7;
73623;PMS5003;61921;53.226;-1.296;2023-04-01T07:47:43;7;7;
73623;PMS5003;61921;53.226;-1.296;2023-04-01T07:50:08;9;6;
73623;PMS5003;61921;53.226;-1.296;2023-04-01T07:52:31;9;7;
73623;PMS5003;61921;53.226;-1.296;2023-04-01T07:54:56;7;7;
73623;PMS5003;61921;53.226;-1.296;2023-04-01T07:57:21;8;6;
73623;PMS5003;61921;53.226;-1.296;2023-04-01T07:59:48;10;10;
73623;PMS5003;61921;53.226;-1.296;2023-04-01T08:02:14;8;6;
73623;PMS5003;61921;53.226;-1.296;2023-04-01T08:04:40;7;7;
73623;PMS5003;61921;53.226;-1.296;2023-04-01T08:07:05;7;6;
73623;PMS5003;61921;53.226;-1.296;2023-04-01T08:09:30;6;5;
73623;PMS5003;61921;53.226;-1.296;2023-04-01T08:11:57;7;6;
73623;PMS5003;61921;53.226;-1.296;2023-04-01T08:14:21;7;7;
73623;PMS5003;61921;53.226;-1.296;2023-04-01T08:16:46;8;7;
73623;PMS5003;61921;53.226;-1.296;2023-04-01T08:19:15;8;8;
73623;PMS5003;61921;53.226;-1.296;2023-04-01T08:21:38;9;8;
73623;PMS5003;61921;53.226;-1.296;2023-04-01T08:24:05;6;6;
73623;PMS5003;61921;53.226;-1.296;2023-04-01T08:26:29;6;6;
73623;PMS5003;61921;53.226;-1.296;2023-04-01T08:28:54;9;8;
73623;PMS5003;61921;53.226;-1.296;2023-04-01T08:31:18;9;6;
73623;PMS5003;61921;53.226;-1.296;2023-04-01T08:33:44;9;7;
73623;PMS5003;61921;53.226;-1.296;2023-04-01T08:36:10;7;6;
73623;PMS5003;61921;53.226;-1.296;2023-04-01T08:38:38;6;6;
73623;PMS5003;61921;53.226;-1.296;2023-04-01T08:41:01;10;7;
73623;PMS5003;61921;53.226;-1.296;2023-04-01T08:43:31;6;5;
73623;PMS5003;61921;53.226;-1.296;2023-04-01T08:45:56;7;7;
73623;PMS5003;61921;53.226;-1.296;2023-04-01T08:50:51;8;8;
73623;PMS5003;61921;53.226;-1.296;2023-04-01T08:53:09;8;6;
73623;PMS5003;61921;53.226;-1.296;2023-04-01T08:55:38;5;5;
73623;PMS5003;61921;53.226;-1.296;2023-04-01T08:58:04;9;8;
73623;PMS5003;61921;53.226;-1.296;2023-04-01T09:00:27;5;5;
73623;PMS5003;61921;53.226;-1.296;2023-04-01T09:02:54;6;6;
73623;PMS5003;61921;53.226;-1.296;2023-04-01T09:07:42;8;6;
73623;PMS5003;61921;53.226;-1.296;2023-04-01T09:10:11;7;7;
73623;PMS5003;61921;53.226;-1.296;2023-04-01T09:12:35;7;7;
73623;PMS5003;61921;53.226;-1.296;2023-04-01T09:15:04;9;6;
73623;PMS5003;61921;53.226;-1.296;2023-04-01T09:17:29;8;7;
73623;PMS5003;61921;53.226;-1.296;2023-04-01T09:19:52;7;6;
73623;PMS5003;61921;53.226;-1.296;2023-04-01T09:22:18;7;6;
73623;PMS5003;61921;53.226;-1.296;2023-04-01T09:24:42;6;6;
73623;PMS5003;61921;53.226;-1.296;2023-04-01T09:27:05;6;6;
73623;PMS5003;61921;53.226;-1.296;2023-04-01T09:29:34;9;8;
73623;PMS5003;61921;53.226;-1.296;2023-04-01T09:32:04;8;8;
73623;PMS5003;61921;53.226;-1.296;2023-04-01T09:34:25;6;6;
73623;PMS5003;61921;53.226;-1.296;2023-04-01T09:36:47;8;6;
73623;PMS5003;61921;53.226;-1.296;2023-04-01T09:41:39;6;5;
73623;PMS5003;61921;53.226;-1.296;2023-04-01T09:44:03;7;7;
73623;PMS5003;61921;53.226;-1.296;2023-04-01T09:46:31;8;6;
73623;PMS5003;61921;53.226;-1.296;2023-04-01T09:49:02;3;3;
73623;PMS5003;61921;53.226;-1.296;2023-04-01T09:51:23;3;3;
73623;PMS5003;61921;53.226;-1.296;2023-04-01T09:53:48;5;4;
73623;PMS5003;61921;53.226;-1.296;2023-04-01T09:56:17;6;6;
73623;PMS5003;61921;53.226;-1.296;2023-04-01T09:58:46;4;4;
73623;PMS5003;61921;53.226;-1.296;2023-04-01T10:13:16;6;5;
73623;PMS5003;61921;53.226;-1.296;2023-04-01T10:15:39;7;5;
73623;PMS5003;61921;53.226;-1.296;2023-04-01T10:18:07;7;7;
73623;PMS5003;61921;53.226;-1.296;2023-04-01T10:20:30;8;8;
73623;PMS5003;61921;53.226;-1.296;2023-04-01T10:23:02;11;10;
73623;PMS5003;61921;53.226;-1.296;2023-04-01T10:25:29;12;10;
73623;PMS5003;61921;53.226;-1.296;2023-04-01T10:35:08;5;5;
73623;PMS5003;61921;53.226;-1.296;2023-04-01T10:37:29;6;6;
73623;PMS5003;61921;53.226;-1.296;2023-04-01T10:40:00;4;4;
73623;PMS5003;61921;53.226;-1.296;2023-04-01T10:42:21;4;4;
73623;PMS5003;61921;53.226;-1.296;2023-04-01T10:44:44;4;4;
73623;PMS5003;61921;53.226;-1.296;2023-04-01T10:47:13;4;4;
73623;PMS5003;61921;53.226;-1.296;2023-04-01T10:49:39;4;4;
73623;PMS5003;61921;53.226;-1.296;2023-04-01T10:56:50;5;4;
73623;PMS5003;61921;53.226;-1.296;2023-04-01T11:01:48;4;4;
73623;PMS5003;61921;53.226;-1.296;2023-04-01T11:09:04;4;2;
73623;PMS5003;61921;53.226;-1.296;2023-04-01T11:13:51;4;4;
73623;PMS5003;61921;53.226;-1.296;2023-04-01T11:16:15;5;5;
73623;PMS5003;61921;53.226;-1.296;2023-04-01T11:23:29;6;3;
73623;PMS5003;61921;53.226;-1.296;2023-04-01T11:26:02;2;2;
73623;PMS5003;61921;53.226;-1.296;2023-04-01T11:28:23;3;3;
73623;PMS5003;61921;53.226;-1.296;2023-04-01T11:33:10;3;3;
73623;PMS5003;61921;53.226;-1.296;2023-04-01T11:35:45;2;2;
73623;PMS5003;61921;53.226;-1.296;2023-04-01T11:38:01;2;1;
73623;PMS5003;61921;53.226;-1.296;2023-04-01T11:40:32;2;2;
73623;PMS5003;61921;53.226;-1.296;2023-04-01T11:42:52;2;2;
73623;PMS5003;61921;53.226;-1.296;2023-04-01T11:45:19;2;2;
73623;PMS5003;61921;53.226;-1.296;2023-04-01T11:47:48;3;3;
73623;PMS5003;61921;53.226;-1.296;2023-04-01T11:50:16;2;2;
73623;PMS5003;61921;53.226;-1.296;2023-04-01T11:52:35;2;2;
73623;PMS5003;61921;53.226;-1.296;2023-04-01T11:55:03;2;2;
73623;PMS5003;61921;53.226;-1.296;2023-04-01T11:59:58;2;2;
73623;PMS5003;61921;53.226;-1.296;2023-04-01T12:02:16;3;3;
73623;PMS5003;61921;53.226;-1.296;2023-04-01T12:04:46;4;4;
73623;PMS5003;61921;53.226;-1.296;2023-04-01T12:07:06;5;4;
73623;PMS5003;61921;53.226;-1.296;2023-04-01T12:09:32;3;3;
73623;PMS5003;61921;53.226;-1.296;2023-04-01T12:11:58;5;5;
73623;PMS5003;61921;53.226;-1.296;2023-04-01T12:14:22;4;4;
73623;PMS5003;61921;53.226;-1.296;2023-04-01T12:16:49;4;4;
73623;PMS5003;61921;53.226;-1.296;2023-04-01T12:19:15;4;3;
73623;PMS5003;61921;53.226;-1.296;2023-04-01T12:21:38;3;3;
73623;PMS5003;61921;53.226;-1.296;2023-04-01T12:24:15;2;2;
73623;PMS5003;61921;53.226;-1.296;2023-04-01T12:26:31;3;3;
73623;PMS5003;61921;53.226;-1.296;2023-04-01T12:29:01;4;2;
73623;PMS5003;61921;53.226;-1.296;2023-04-01T12:31:22;3;3;
73623;PMS5003;61921;53.226;-1.296;2023-04-01T12:33:47;2;2;
73623;PMS5003;61921;53.226;-1.296;2023-04-01T12:36:13;4;4;
73623;PMS5003;61921;53.226;-1.296;2023-04-01T12:38:38;2;2;
73623;PMS5003;61921;53.226;-1.296;2023-04-01T12:41:03;4;2;
73623;PMS5003;61921;53.226;-1.296;2023-04-01T12:43:29;3;3;
73623;PMS5003;61921;53.226;-1.296;2023-04-01T12:45:53;4;4;
73623;PMS5003;61921;53.226;-1.296;2023-04-01T12:48:21;4;3;
73623;PMS5003;61921;53.226;-1.296;2023-04-01T12:50:48;3;3;
73623;PMS5003;61921;53.226;-1.296;2023-04-01T12:53:12;4;4;
73623;PMS5003;61921;53.226;-1.296;2023-04-01T12:55:37;4;3;
73623;PMS5003;61921;53.226;-1.296;2023-04-01T12:58:02;5;5;
73623;PMS5003;61921;53.226;-1.296;2023-04-01T13:00:29;5;5;
73623;PMS5003;61921;53.226;-1.296;2023-04-01T13:02:53;3;3;
73623;PMS5003;61921;53.226;-1.296;2023-04-01T13:05:19;3;3;
73623;PMS5003;61921;53.226;-1.296;2023-04-01T13:07:45;4;4;
73623;PMS5003;61921;53.226;-1.296;2023-04-01T13:10:07;4;4;
73623;PMS5003;61921;53.226;-1.296;2023-04-01T13:12:36;6;6;
73623;PMS5003;61921;53.226;-1.296;2023-04-01T13:17:22;3;3;
73623;PMS5003;61921;53.226;-1.296;2023-04-01T13:19:49;2;2;
73623;PMS5003;61921;53.226;-1.296;2023-04-01T13:22:14;7;6;
73623;PMS5003;61921;53.226;-1.296;2023-04-01T13:24:40;4;4;
73623;PMS5003;61921;53.226;-1.296;2023-04-01T13:27:06;3;3;
73623;PMS5003;61921;53.226;-1.296;2023-04-01T13:29:31;2;2;
73623;PMS5003;61921;53.226;-1.296;2023-04-01T13:32:01;2;2;
73623;PMS5003;61921;53.226;-1.296;2023-04-01T13:34:26;3;3;
73623;PMS5003;61921;53.226;-1.296;2023-04-01T13:36:49;4;3;
73623;PMS5003;61921;53.226;-1.296;2023-04-01T13:39:15;3;3;
73623;PMS5003;61921;53.226;-1.296;2023-04-01T13:41:40;4;4;
73623;PMS5003;61921;53.226;-1.296;2023-04-01T13:44:05;4;2;
73623;PMS5003;61921;53.226;-1.296;2023-04-01T13:49:01;3;3;
73623;PMS5003;61921;53.226;-1.296;2023-04-01T13:51:20;4;2;
73623;PMS5003;61921;53.226;-1.296;2023-04-01T13:53:47;5;4;
73623;PMS5003;61921;53.226;-1.296;2023-04-01T13:58:38;2;2;
73623;PMS5003;61921;53.226;-1.296;2023-04-01T14:01:03;2;2;
73623;PMS5003;61921;53.226;-1.296;2023-04-01T14:03:27;2;2;
73623;PMS5003;61921;53.226;-1.296;2023-04-01T14:05:53;2;2;
73623;PMS5003;61921;53.226;-1.296;2023-04-01T14:08:20;5;4;
73623;PMS5003;61921;53.226;-1.296;2023-04-01T14:10:43;4;3;
73623;PMS5003;61921;53.226;-1.296;2023-04-01T14:13:08;2;2;
73623;PMS5003;61921;53.226;-1.296;2023-04-01T14:15:36;3;3;
73623;PMS5003;61921;53.226;-1.296;2023-04-01T14:18:02;2;2;
73623;PMS5003;61921;53.226;-1.296;2023-04-01T14:20:26;2;2;
73623;PMS5003;61921;53.226;-1.296;2023-04-01T14:22:52;5;4;
73623;PMS5003;61921;53.226;-1.296;2023-04-01T14:25:20;5;4;
73623;PMS5003;61921;53.226;-1.296;2023-04-01T14:27:41;2;2;
73623;PMS5003;61921;53.226;-1.296;2023-04-01T14:32:33;3;3;
73623;PMS5003;61921;53.226;-1.296;2023-04-01T14:34:59;3;3;
73623;PMS5003;61921;53.226;-1.296;2023-04-01T14:37:25;5;5;
73623;PMS5003;61921;53.226;-1.296;2023-04-01T14:39:55;2;2;
73623;PMS5003;61921;53.226;-1.296;2023-04-01T14:42:17;5;5;
73623;PMS5003;61921;53.226;-1.296;2023-04-01T14:47:04;4;4;
73623;PMS5003;61921;53.226;-1.296;2023-04-01T14:49:30;5;5;
73623;PMS5003;61921;53.226;-1.296;2023-04-01T14:51:53;8;7;
73623;PMS5003;61921;53.226;-1.296;2023-04-01T14:54:20;6;6;
73623;PMS5003;61921;53.226;-1.296;2023-04-01T14:56:46;5;5;
73623;PMS5003;61921;53.226;-1.296;2023-04-01T14:59:13;7;5;
73623;PMS5003;61921;53.226;-1.296;2023-04-01T15:01:37;6;5;
73623;PMS5003;61921;53.226;-1.296;2023-04-01T15:04:04;4;4;
73623;PMS5003;61921;53.226;-1.296;2023-04-01T15:06:38;8;8;
73623;PMS5003;61921;53.226;-1.296;2023-04-01T15:08:52;7;7;
73623;PMS5003;61921;53.226;-1.296;2023-04-01T15:11:21;9;9;
73623;PMS5003;61921;53.226;-1.296;2023-04-01T15:13:46;7;7;
73623;PMS5003;61921;53.226;-1.296;2023-04-01T15:16:10;6;5;
73623;PMS5003;61921;53.226;-1.296;2023-04-01T15:18:36;5;5;
73623;PMS5003;61921;53.226;-1.296;2023-04-01T15:21:04;9;6;
73623;PMS5003;61921;53.226;-1.296;2023-04-01T15:23:28;7;7;
73623;PMS5003;61921;53.226;-1.296;2023-04-01T15:25:53;5;5;
73623;PMS5003;61921;53.226;-1.296;2023-04-01T15:28:18;8;7;
73623;PMS5003;61921;53.226;-1.296;2023-04-01T15:30:45;11;9;
73623;PMS5003;61921;53.226;-1.296;2023-04-01T15:33:09;10;7;
73623;PMS5003;61921;53.226;-1.296;2023-04-01T15:35:34;9;8;
73623;PMS5003;61921;53.226;-1.296;2023-04-01T15:37:58;8;8;
73623;PMS5003;61921;53.226;-1.296;2023-04-01T15:40:23;7;7;
73623;PMS5003;61921;53.226;-1.296;2023-04-01T15:42:52;8;7;
73623;PMS5003;61921;53.226;-1.296;2023-04-01T15:45:16;10;8;
73623;PMS5003;61921;53.226;-1.296;2023-04-01T15:47:39;6;6;
73623;PMS5003;61921;53.226;-1.296;2023-04-01T15:52:35;8;8;
73623;PMS5003;61921;53.226;-1.296;2023-04-01T15:54:58;7;7;
73623;PMS5003;61921;53.226;-1.296;2023-04-01T15:57:24;8;7;
73623;PMS5003;61921;53.226;-1.296;2023-04-01T15:59:53;8;8;
73623;PMS5003;61921;53.226;-1.296;2023-04-01T16:02:13;9;8;
73623;PMS5003;61921;53.226;-1.296;2023-04-01T16:04:42;10;9;
73623;PMS5003;61921;53.226;-1.296;2023-04-01T16:07:03;8;7;
73623;PMS5003;61921;53.226;-1.296;2023-04-01T16:09:32;8;7;
73623;PMS5003;61921;53.226;-1.296;2023-04-01T16:11:53;5;5;
73623;PMS5003;61921;53.226;-1.296;2023-04-01T16:14:22;5;5;
73623;PMS5003;61921;53.226;-1.296;2023-04-01T16:16:49;9;6;
73623;PMS5003;61921;53.226;-1.296;2023-04-01T16:19:14;7;7;
73623;PMS5003;61921;53.226;-1.296;2023-04-01T16:21:36;10;10;
73623;PMS5003;61921;53.226;-1.296;2023-04-01T16:24:00;8;8;
73623;PMS5003;61921;53.226;-1.296;2023-04-01T16:26:26;7;7;
73623;PMS5003;61921;53.226;-1.296;2023-04-01T16:28:53;8;8;
73623;PMS5003;61921;53.226;-1.296;2023-04-01T16:31:23;8;8;
73623;PMS5003;61921;53.226;-1.296;2023-04-01T16:33:45;11;9;
73623;PMS5003;61921;53.226;-1.296;2023-04-01T16:36:09;11;11;
73623;PMS5003;61921;53.226;-1.296;2023-04-01T16:38:33;11;10;
73623;PMS5003;61921;53.226;-1.296;2023-04-01T16:41:01;10;9;
73623;PMS5003;61921;53.226;-1.296;2023-04-01T16:43:25;11;8;
73623;PMS5003;61921;53.226;-1.296;2023-04-01T16:45:53;12;11;
73623;PMS5003;61921;53.226;-1.296;2023-04-01T16:48:14;61;60;
73623;PMS5003;61921;53.226;-1.296;2023-04-01T16:50:42;14;14;
73623;PMS5003;61921;53.226;-1.296;2023-04-01T16:53:08;16;16;
73623;PMS5003;61921;53.226;-1.296;2023-04-01T16:55:35;16;13;
73623;PMS5003;61921;53.226;-1.296;2023-04-01T16:57:56;14;13;
73623;PMS5003;61921;53.226;-1.296;2023-04-01T17:00:23;13;12;
73623;PMS5003;61921;53.226;-1.296;2023-04-01T17:02:47;12;12;
73623;PMS5003;61921;53.226;-1.296;2023-04-01T17:05:12;13;12;
73623;PMS5003;61921;53.226;-1.296;2023-04-01T17:07:42;14;11;
73623;PMS5003;61921;53.226;-1.296;2023-04-01T17:10:07;13;9;
73623;PMS5003;61921;53.226;-1.296;2023-04-01T17:12:29;15;13;
73623;PMS5003;61921;53.226;-1.296;2023-04-01T17:14:55;11;10;
73623;PMS5003;61921;53.226;-1.296;2023-04-01T17:17:22;14;11;
73623;PMS5003;61921;53.226;-1.296;2023-04-01T17:19:47;14;12;
73623;PMS5003;61921;53.226;-1.296;2023-04-01T17:22:13;13;13;